createdAt,value
2022-10-29T00:03:08.846Z,50.5
2022-10-29T00:13:08.870Z,52
2022-10-29T00:23:08.843Z,50.5
2022-10-29T00:33:08.910Z,51.5
2022-10-29T00:43:08.784Z,52
2022-10-29T00:53:08.877Z,52
2022-10-29T01:03:09.033Z,52
2022-10-29T01:13:08.896Z,52
2022-10-29T01:23:08.971Z,52
2022-10-29T01:33:08.855Z,52
2022-10-29T01:43:09.011Z,52
2022-10-29T01:53:08.849Z,52
2022-10-29T02:03:08.970Z,52
2022-10-29T02:13:08.869Z,52
2022-10-29T02:23:09.017Z,52
2022-10-29T02:33:09.024Z,52
2022-10-29T02:43:09.004Z,52
2022-10-29T02:53:09.014Z,52
2022-10-29T03:03:08.941Z,52
2022-10-29T03:13:09.005Z,52
2022-10-29T03:23:08.925Z,52
2022-10-29T03:33:09.044Z,52
2022-10-29T03:43:09.160Z,52
2022-10-29T03:53:09.019Z,52
2022-10-29T04:03:09.145Z,52
2022-10-29T04:13:09.040Z,52
2022-10-29T04:23:54.499Z,52.5
2022-10-29T04:33:09.017Z,52.5
2022-10-29T04:43:09.130Z,56
2022-10-29T04:53:09.026Z,56
2022-10-29T05:03:09.149Z,60
2022-10-29T05:13:09.227Z,58.5
2022-10-29T05:23:09.134Z,58.5
2022-10-29T05:33:09.196Z,57.5
2022-10-29T05:43:09.135Z,56.5
2022-10-29T05:53:09.228Z,60
2022-10-29T06:03:09.197Z,65.5
2022-10-29T06:13:09.221Z,69
2022-10-29T06:23:09.104Z,73
2022-10-29T06:33:09.218Z,74
2022-10-29T06:43:09.368Z,70.5
2022-10-29T06:53:09.225Z,69
2022-10-29T07:03:09.334Z,70
2022-10-29T07:13:09.199Z,70
2022-10-29T07:23:09.339Z,69.5
2022-10-29T07:33:09.210Z,72
2022-10-29T07:43:09.344Z,76
2022-10-29T07:53:09.191Z,81
2022-10-29T08:03:09.297Z,90.5
2022-10-29T08:13:09.382Z,101.5
2022-10-29T08:23:09.303Z,104
2022-10-29T08:33:09.415Z,107.5
2022-10-29T08:43:09.309Z,108
2022-10-29T08:53:22.625Z,110
2022-10-29T09:03:09.292Z,112
2022-10-29T09:13:09.400Z,114
2022-10-29T09:23:09.344Z,114
2022-10-29T09:33:09.424Z,112.5
2022-10-29T09:43:09.614Z,107.5
2022-10-29T09:53:09.419Z,102
2022-10-29T10:03:09.562Z,97.5
2022-10-29T10:13:12.918Z,92.5
2022-10-29T10:23:09.512Z,91.5
2022-10-29T10:33:09.578Z,90.5
2022-10-29T10:43:09.426Z,88.5
2022-10-29T10:53:09.502Z,87
2022-10-29T11:03:09.765Z,84.5
2022-10-29T11:13:09.489Z,82.5
2022-10-29T11:23:09.603Z,80.5
2022-10-29T11:33:09.504Z,78.5
2022-10-29T11:43:09.632Z,78.5
2022-10-29T11:53:09.601Z,78.5
2022-10-29T12:03:09.556Z,76.5
2022-10-29T12:13:09.627Z,76.5
2022-10-29T12:23:13.667Z,74.5
2022-10-29T12:33:09.573Z,74.5
2022-10-29T12:43:09.542Z,72.5
2022-10-29T12:53:09.644Z,70.5
2022-10-29T13:03:09.631Z,67
2022-10-29T13:13:09.595Z,59
2022-10-29T13:23:10.678Z,58.5
2022-10-29T13:33:09.663Z,58.5
2022-10-29T13:43:09.759Z,58.5
2022-10-29T13:53:13.271Z,57
2022-10-29T14:03:13.878Z,56.5
2022-10-29T14:13:09.668Z,56.5
2022-10-29T14:23:09.758Z,56.5
2022-10-29T14:33:09.841Z,56.5
2022-10-29T14:43:09.768Z,56.5
2022-10-29T14:53:09.786Z,58
2022-10-29T15:03:09.890Z,60
2022-10-29T15:13:09.806Z,58.5
2022-10-29T15:23:09.716Z,57
2022-10-29T15:33:09.796Z,56.5
2022-10-29T15:43:09.708Z,56.5
2022-10-29T15:53:09.755Z,56
2022-10-29T16:03:09.867Z,56
2022-10-29T16:13:09.777Z,56
2022-10-29T16:23:09.886Z,56
2022-10-29T16:33:09.770Z,56
2022-10-29T16:43:09.878Z,56
2022-10-29T16:53:09.751Z,56
2022-10-29T17:03:11.900Z,53.5
2022-10-29T17:13:09.859Z,51
2022-10-29T17:23:09.809Z,49.5
2022-10-29T17:33:09.882Z,48.5
2022-10-29T17:43:09.977Z,48.5
2022-10-29T17:53:09.866Z,48.5
2022-10-29T18:03:09.846Z,48.5
2022-10-29T18:13:09.896Z,48.5
2022-10-29T18:23:10.083Z,48.5
2022-10-29T18:43:10.036Z,48.5
2022-10-29T18:53:09.956Z,48.5
2022-10-29T19:03:10.090Z,48.5
2022-10-29T19:13:09.920Z,50
2022-10-29T19:23:10.010Z,50
2022-10-29T19:33:10.361Z,50
2022-10-29T19:43:10.014Z,50
2022-10-29T19:53:10.139Z,50
2022-10-29T20:03:10.035Z,50
2022-10-29T20:13:10.244Z,50
2022-10-29T20:23:09.995Z,50
2022-10-29T20:33:10.092Z,50
2022-10-29T20:43:10.070Z,50
2022-10-29T21:03:10.287Z,50
2022-10-29T21:13:10.039Z,50
2022-10-29T21:23:10.220Z,50
2022-10-29T21:33:10.074Z,50
2022-10-29T21:43:10.196Z,50
2022-10-29T21:53:10.109Z,50
2022-10-29T22:03:10.220Z,50
2022-10-29T22:13:11.865Z,50
2022-10-29T22:23:10.300Z,50
2022-10-29T22:33:10.295Z,50
2022-10-29T22:43:10.192Z,50
2022-10-29T22:53:10.256Z,50
2022-10-29T23:03:10.233Z,50
2022-10-29T23:13:10.300Z,50
2022-10-29T23:23:10.255Z,50
2022-10-29T23:33:10.334Z,51
2022-10-29T23:43:10.404Z,52
2022-10-29T23:53:10.220Z,50.5
